NCAR-RAP Real-Time Weather Data

Output produced by METARs form (18 August 2018  01:02 UTC)
found at http://weather.rap.ucar.edu/surface/
 
RJSR 180000Z VRB02KT 9999 FEW010 SCT040 BKN/// 16/16 Q1014
RJSR 172323Z VRB01KT 9999 PRFG FEW001 SCT004 BKN/// 15/15 Q1014 RMK 1ST001 4ST004 A2995 3000S-SW
RJSR 172300Z VRB02KT 2000 BCFG BR FEW001 BKN003 15/15 Q1014
RJSR 171000Z VRB01KT 9999 FEW010 BKN050 17/15 Q1011
RJSR 170900Z 13002KT 9999 FEW015 BKN050 18/15 Q1010
RJSR 170800Z 08004KT 050V120 9999 FEW020 SCT040 BKN050 18/14 Q1009
RJSR 170700Z 07004KT 9999 FEW015 SCT030 BKN040 19/14 Q1009
RJSR 170600Z 31004KT 240V010 9999 FEW020 SCT030 BKN070 22/13 Q1008
RJSR 170500Z 34007KT 290V040 9999 FEW020 SCT030 BKN070 21/12 Q1009
RJSR 170400Z 35007KT 300V030 9999 FEW030 BKN050 20/13 Q1009
RJSR 170300Z VRB03KT 9999 FEW015 SCT030 BKN040 21/12 Q1009
RJSR 170200Z 35006KT 310V050 9999 FEW015 SCT030 BKN040 18/14 Q1009
RJSR 170100Z 36003KT 320V070 9999 -SHRA FEW005 SCT020 BKN040 17/15 Q1008
RJSR 170038Z 33003KT 280V360 9999 R11/1400VP2000U -SHRA FEW005 SCT015 BKN030 17/15 Q1008 RMK 1ST005 3CU015 5CU030 A2978
RJSR 170016Z 29003KT 230V320 3500 R11/2000N -SHRA BCFG BR FEW003 SCT008 BKN015 17/16 Q1008 RMK 1ST003 3ST008 5CU015 A2977
RJSR 170000Z 28003KT 240V350 8000 -SHRA FEW005 SCT015 BKN030 17/14 Q1008
RJSR 162300Z 00000KT 9999 FEW020 SCT030 BKN070 17/15 Q1007
RJSR 161000Z 23007KT 9999 FEW010 SCT015 BKN070 20/20 Q1001
RJSR 160900Z 23007KT 190V260 9999 FEW005 SCT010 BKN040 21/21 Q1000
RJSR 160800Z 20005KT 170V240 6000 -SHRA FEW005 BKN010 21/21 Q1000
RJSR 160700Z 26009KT 230V300 9999 -SHRA FEW007 SCT030 BKN040 21/20 Q0999
RJSR 160639Z 28012KT 6000 R11/2000N -SHRA FEW005 SCT020 BKN030 20/20 Q0999 RMK 1ST005 3CU020 6CU030 A2952
RJSR 160627Z 28014KT 2500 R11/0700V1400U SHRA BCFG BR FEW001 SCT007 BKN015 20/20 Q0999 RMK 1ST001 3ST007 7CU015 A2952
RJSR 160615Z 26018KT 2000 R11/0400V0900U SHRA BCFG BR FEW001 SCT006 BKN010 21/21 Q0999 RMK 1ST001 3ST006 7ST010 A2951
RJSR 160600Z 25011KT 210V280 1500 R11/0450V0900D +SHRA BCFG BR FEW001 SCT004 BKN010 22/22 Q0999
RJSR 160544Z 26008KT 2000 R11/1200VP2000D SHRA BCFG BR FEW001 SCT004 BKN010 23/23 Q0999 RMK 1ST001 3ST004 7ST010 A2951
RJSR 160500Z 23003KT 170V270 9999 FEW010 SCT020 BKN/// 23/23 Q0999
RJSR 160400Z VRB02KT 9999 -SHRA FEW003 SCT008 BKN030 23/23 Q1000
RJSR 160300Z 22005KT 170V260 9999 -SHRA FEW003 SCT015 BKN/// 23/22 Q1001
RJSR 160200Z 26005KT 220V300 5000 -SHRA BR FEW001 SCT005 BKN020 22/22 Q1002
RJSR 160100Z VRB01KT 2500 R11/1100V1800D SHRA BCFG BR FEW001 SCT004 BKN012 22/22 Q1003
RJSR 160023Z 00000KT 4000 R11/2000N -SHRA BR FEW001 SCT004 BKN015 22/22 Q1003 RMK 1ST001 4ST004 6CU015 A2964
RJSR 160000Z 09001KT 5000 -SHRA BR FEW001 SCT004 BKN015 22/22 Q1003
RJSR 152300Z VRB02KT 6000 -SHRA FEW001 SCT005 BKN020 22/22 Q1004